Time;durP1;ratioP1;P1;durP2;ratioP2;P2;SDS_P1;SDS_P2;PMS_P1;PMS_P2;Temp;Humidity;BMP_temperature;BMP_pressure;BME280_temperature;BME280_humidity;BME280_pressure;Samples;Min_cycle;Max_cycle;Signal;HPM_P1;HPM_P2
2022/04/15 00:00:06;;;;;;;25.02;13.82;;;11.90;57.00;;;;;;5019297;28;20396;-76
2022/04/15 00:02:32;;;;;;;25.05;14.20;;;11.90;57.00;;;;;;5019499;28;20397;-77
2022/04/15 00:04:57;;;;;;;29.05;14.25;;;11.90;57.70;;;;;;5023122;28;20972;-75
2022/04/15 00:07:24;;;;;;;24.17;13.93;;;11.70;58.30;;;;;;5016750;28;20396;-76
2022/04/15 00:09:49;;;;;;;26.53;14.20;;;11.60;59.20;;;;;;5021611;28;20396;-74
2022/04/15 00:12:27;;;;;;;24.60;13.57;;;11.80;59.70;;;;;;5019374;28;20880;-75
2022/04/15 00:14:53;;;;;;;24.90;13.35;;;11.70;60.10;;;;;;5024536;28;20427;-76
2022/04/15 00:17:19;;;;;;;24.48;14.48;;;11.50;61.40;;;;;;5023977;28;20413;-76
2022/04/15 00:19:46;;;;;;;26.50;14.50;;;11.50;63.20;;;;;;5023285;28;20468;-75
2022/04/15 00:22:12;;;;;;;28.55;14.55;;;11.60;62.20;;;;;;5027756;28;20708;-75
2022/04/15 00:24:38;;;;;;;28.90;15.50;;;11.60;61.40;;;;;;5026776;28;20930;-74
2022/04/15 00:27:04;;;;;;;23.63;13.57;;;11.60;60.80;;;;;;5011443;28;20412;-75
2022/04/15 00:29:29;;;;;;;22.23;14.35;;;11.60;61.10;;;;;;5014591;28;20401;-74
2022/04/15 00:31:55;;;;;;;24.50;14.93;;;11.50;61.70;;;;;;5028875;28;20919;-75
2022/04/15 00:34:21;;;;;;;25.70;14.63;;;11.50;61.60;;;;;;5012216;28;20408;-75
2022/04/15 00:36:46;;;;;;;28.27;15.18;;;11.40;63.40;;;;;;5018924;28;20404;-75
2022/04/15 00:39:12;;;;;;;25.58;14.40;;;11.40;63.30;;;;;;5019953;28;20526;-74
2022/04/15 00:41:41;;;;;;;26.05;14.68;;;11.30;64.90;;;;;;5020186;28;20403;-75
2022/04/15 00:44:06;;;;;;;26.73;15.77;;;11.30;64.80;;;;;;5016507;28;20398;-76
2022/04/15 00:46:32;;;;;;;25.42;15.75;;;11.30;65.00;;;;;;5011130;28;20935;-74
2022/04/15 00:48:57;;;;;;;26.75;15.02;;;11.20;66.00;;;;;;5022326;28;20490;-76
2022/04/15 00:51:23;;;;;;;31.10;15.93;;;11.20;66.60;;;;;;5013799;28;20420;-74
2022/04/15 00:53:50;;;;;;;24.88;15.68;;;11.00;67.80;;;;;;5013312;28;20432;-75
2022/04/15 00:56:16;;;;;;;27.52;15.10;;;11.10;68.70;;;;;;5011934;28;20401;-75
2022/04/15 00:58:43;;;;;;;27.00;16.20;;;11.10;68.30;;;;;;5021054;28;20409;-76
2022/04/15 01:01:09;;;;;;;31.60;16.42;;;11.20;67.50;;;;;;5020072;28;20452;-76
2022/04/15 01:03:36;;;;;;;27.00;15.70;;;11.10;68.50;;;;;;5013139;28;20489;-76
2022/04/15 01:06:04;;;;;;;29.02;15.50;;;11.00;69.10;;;;;;5005517;28;20980;-76
2022/04/15 01:08:31;;;;;;;31.23;15.80;;;11.10;68.80;;;;;;5020737;28;20493;-76
2022/04/15 01:10:58;;;;;;;24.02;15.82;;;10.90;69.90;;;;;;5023470;28;20411;-75
2022/04/15 01:13:26;;;;;;;29.33;15.68;;;10.80;72.20;;;;;;5015033;28;20822;-74
2022/04/15 01:15:54;;;;;;;27.75;15.60;;;10.80;71.50;;;;;;5022776;28;20899;-73
2022/04/15 01:18:20;;;;;;;24.85;14.85;;;10.90;71.10;;;;;;5021465;28;20406;-74
2022/04/15 01:20:50;;;;;;;29.75;15.75;;;10.70;73.80;;;;;;5020510;28;20399;-73
2022/04/15 01:23:16;;;;;;;24.70;14.98;;;10.70;72.60;;;;;;5002267;28;20402;-74
2022/04/15 01:25:42;;;;;;;33.53;15.90;;;10.70;73.90;;;;;;5007813;28;20926;-74
2022/04/15 01:28:07;;;;;;;23.77;15.18;;;10.80;73.80;;;;;;5016088;28;20400;-74
2022/04/15 01:30:33;;;;;;;30.25;15.38;;;10.80;73.00;;;;;;5017765;28;20436;-74
2022/04/15 01:32:59;;;;;;;25.98;15.38;;;10.90;73.10;;;;;;5018719;28;20397;-74
2022/04/15 01:35:25;;;;;;;29.10;14.80;;;10.70;74.10;;;;;;5016248;28;20397;-74
2022/04/15 01:37:51;;;;;;;29.37;16.47;;;10.80;75.40;;;;;;5019428;28;20893;-74
2022/04/15 01:40:18;;;;;;;25.70;15.27;;;10.80;75.30;;;;;;5018881;28;20397;-74
2022/04/15 01:42:45;;;;;;;29.73;16.02;;;10.80;75.70;;;;;;5002791;28;20453;-74
2022/04/15 01:45:11;;;;;;;30.17;15.52;;;10.70;77.40;;;;;;5004621;28;20475;-74
2022/04/15 01:47:37;;;;;;;29.02;15.70;;;10.80;77.60;;;;;;5025435;28;20393;-74
2022/04/15 01:50:04;;;;;;;30.20;15.52;;;10.80;77.60;;;;;;5027613;28;20403;-74
2022/04/15 01:52:30;;;;;;;32.10;17.20;;;10.70;77.70;;;;;;5014532;28;20405;-75
2022/04/15 01:54:56;;;;;;;28.73;15.60;;;10.50;81.00;;;;;;5031506;23;20546;-76
2022/04/15 01:57:22;;;;;;;26.92;16.40;;;10.40;83.50;;;;;;5011547;28;20400;-76
2022/04/15 01:59:47;;;;;;;31.53;15.90;;;10.40;84.30;;;;;;5011823;28;20431;-77
2022/04/15 02:02:13;;;;;;;32.10;15.55;;;10.50;83.40;;;;;;5007326;28;20401;-76
2022/04/15 02:04:39;;;;;;;32.97;17.30;;;10.70;82.10;;;;;;5017483;28;20408;-77
2022/04/15 02:07:05;;;;;;;31.90;15.57;;;10.70;81.00;;;;;;5030755;28;20395;-78
2022/04/15 02:09:31;;;;;;;32.15;17.48;;;10.70;81.00;;;;;;5025527;28;20406;-77
2022/04/15 02:11:57;;;;;;;32.08;16.75;;;10.60;81.10;;;;;;5017479;28;20403;-77
2022/04/15 02:14:23;;;;;;;29.35;16.65;;;10.60;81.80;;;;;;5031015;28;20399;-78
2022/04/15 02:16:52;;;;;;;30.95;16.33;;;10.50;82.00;;;;;;5027490;28;20408;-76
2022/04/15 02:19:17;;;;;;;29.60;15.82;;;10.50;82.50;;;;;;5024651;28;20461;-77
2022/04/15 02:21:43;;;;;;;29.50;17.00;;;10.40;83.10;;;;;;5025368;28;20410;-77
2022/04/15 02:24:08;;;;;;;25.40;16.60;;;10.40;83.80;;;;;;5030089;28;20444;-77
2022/04/15 02:26:34;;;;;;;28.37;16.70;;;10.30;83.80;;;;;;5016099;28;20804;-76
2022/04/15 02:29:00;;;;;;;34.30;18.30;;;10.30;84.60;;;;;;5024684;28;20403;-77
2022/04/15 02:31:25;;;;;;;27.60;17.30;;;10.30;84.90;;;;;;5021422;28;20543;-77
2022/04/15 02:33:51;;;;;;;30.37;17.50;;;10.30;85.20;;;;;;5020216;28;20746;-76
2022/04/15 02:36:17;;;;;;;32.08;18.00;;;10.30;85.30;;;;;;5018264;28;20401;-77
2022/04/15 02:38:43;;;;;;;29.65;17.48;;;10.10;85.30;;;;;;5028725;28;20401;-77
2022/04/15 02:41:09;;;;;;;34.55;18.60;;;10.00;88.30;;;;;;5031614;28;20405;-75
2022/04/15 02:43:37;;;;;;;31.23;19.33;;;9.70;90.20;;;;;;5024468;28;20436;-76
2022/04/15 02:46:05;;;;;;;31.42;18.08;;;9.70;94.20;;;;;;5017071;28;20761;-77
2022/04/15 02:48:31;;;;;;;28.80;18.77;;;9.70;95.10;;;;;;5020462;28;20406;-76
2022/04/15 02:50:57;;;;;;;35.10;19.17;;;9.80;93.50;;;;;;5019458;28;20407;-75
2022/04/15 02:53:23;;;;;;;31.85;18.50;;;9.90;91.40;;;;;;5018672;28;20424;-75
2022/04/15 02:55:50;;;;;;;33.20;17.77;;;9.90;89.90;;;;;;5023743;28;20404;-77
2022/04/15 02:58:16;;;;;;;29.27;18.17;;;10.00;88.60;;;;;;5020944;28;20388;-78
2022/04/15 03:00:41;;;;;;;30.73;18.10;;;10.10;87.40;;;;;;5025679;28;20463;-77
2022/04/15 03:03:07;;;;;;;27.13;17.93;;;10.00;86.90;;;;;;5029637;28;20427;-77
2022/04/15 03:05:33;;;;;;;35.07;19.03;;;9.80;86.30;;;;;;5034931;28;20597;-78
2022/04/15 03:07:58;;;;;;;26.42;18.70;;;9.70;90.60;;;;;;5034222;28;20450;-76
2022/04/15 03:10:24;;;;;;;37.53;19.48;;;9.60;91.70;;;;;;5036496;28;20391;-76
2022/04/15 03:12:50;;;;;;;35.42;17.92;;;9.60;93.90;;;;;;5035815;28;20423;-77
2022/04/15 03:15:16;;;;;;;32.90;19.88;;;9.40;93.50;;;;;;5038513;28;20399;-76
2022/04/15 03:17:42;;;;;;;32.53;19.37;;;9.40;96.40;;;;;;5032616;28;20434;-78
2022/04/15 03:20:09;;;;;;;33.43;19.67;;;9.30;97.40;;;;;;5031667;28;20446;-79
2022/04/15 03:22:39;;;;;;;32.72;18.33;;;9.40;95.90;;;;;;5034540;28;20398;-77
2022/04/15 03:25:06;;;;;;;32.97;18.42;;;9.50;94.30;;;;;;5027832;28;20397;-78
2022/04/15 03:27:32;;;;;;;32.03;19.30;;;9.50;94.00;;;;;;5026776;28;20765;-77
2022/04/15 03:29:58;;;;;;;30.40;19.05;;;9.60;94.10;;;;;;5016988;28;20427;-77
2022/04/15 03:32:24;;;;;;;33.63;19.80;;;9.60;94.50;;;;;;5025576;28;20743;-76
2022/04/15 03:34:53;;;;;;;34.38;19.42;;;9.60;94.50;;;;;;5027861;28;20391;-75
2022/04/15 03:37:18;;;;;;;33.33;19.08;;;9.60;94.30;;;;;;5031639;28;20411;-75
2022/04/15 03:39:44;;;;;;;33.00;19.03;;;9.60;95.00;;;;;;5031380;28;20623;-77
2022/04/15 03:42:09;;;;;;;33.27;18.83;;;9.60;95.50;;;;;;5023616;28;20393;-77
2022/04/15 03:44:36;;;;;;;33.10;19.57;;;9.50;97.00;;;;;;5023574;28;20525;-75
2022/04/15 03:47:01;;;;;;;38.00;20.38;;;9.40;96.90;;;;;;5026002;28;20472;-77
2022/04/15 03:49:27;;;;;;;34.83;20.40;;;9.40;99.80;;;;;;5024851;28;20450;-75
2022/04/15 03:51:53;;;;;;;35.90;20.30;;;9.50;99.50;;;;;;5032884;28;20416;-77
2022/04/15 03:54:18;;;;;;;37.40;20.80;;;9.50;99.20;;;;;;5017374;28;20390;-75
2022/04/15 03:56:46;;;;;;;40.47;21.80;;;9.50;98.70;;;;;;5021539;28;20575;-77
2022/04/15 03:59:12;;;;;;;42.45;22.52;;;9.50;98.80;;;;;;5028368;28;20399;-78
2022/04/15 04:01:38;;;;;;;37.60;22.37;;;9.40;99.20;;;;;;5023100;28;20405;-78
2022/04/15 04:04:04;;;;;;;35.60;21.75;;;9.30;99.90;;;;;;5022177;28;20556;-78
2022/04/15 04:06:29;;;;;;;37.67;22.50;;;9.20;99.90;;;;;;5015370;28;20452;-78
2022/04/15 04:08:55;;;;;;;40.75;23.70;;;9.10;99.90;;;;;;5028585;28;20403;-76
2022/04/15 04:11:21;;;;;;;41.40;23.38;;;9.20;99.90;;;;;;5018426;28;20409;-77
2022/04/15 04:13:47;;;;;;;43.30;23.10;;;9.30;99.90;;;;;;5019433;28;20501;-77
2022/04/15 04:16:12;;;;;;;43.75;23.80;;;9.30;99.90;;;;;;5006133;28;20393;-77
2022/04/15 04:18:39;;;;;;;39.53;25.50;;;9.20;99.90;;;;;;5021032;28;20476;-75
2022/04/15 04:21:05;;;;;;;39.53;24.15;;;9.30;99.90;;;;;;5019461;28;20397;-76
2022/04/15 04:23:30;;;;;;;42.38;24.58;;;9.20;99.90;;;;;;5031055;28;20726;-77
2022/04/15 04:25:56;;;;;;;39.28;22.88;;;9.20;99.90;;;;;;5024477;28;20417;-77
2022/04/15 04:28:22;;;;;;;41.65;22.10;;;9.20;99.90;;;;;;5015862;28;20420;-76
2022/04/15 04:30:47;;;;;;;35.33;22.23;;;9.30;99.90;;;;;;5027241;28;20425;-75
2022/04/15 04:33:13;;;;;;;35.53;21.45;;;9.30;98.00;;;;;;5026560;28;20404;-74
2022/04/15 04:35:38;;;;;;;40.00;20.90;;;9.30;97.20;;;;;;5024518;28;20389;-76
2022/04/15 04:38:07;;;;;;;34.22;20.98;;;9.30;97.20;;;;;;5032111;28;20385;-77
2022/04/15 04:40:34;;;;;;;41.65;21.58;;;9.20;97.40;;;;;;5030504;28;20403;-77
2022/04/15 04:43:00;;;;;;;40.05;21.58;;;9.20;97.00;;;;;;5044176;28;20411;-76
2022/04/15 04:45:26;;;;;;;38.83;21.90;;;9.20;97.00;;;;;;5045984;28;20821;-77
2022/04/15 04:47:53;;;;;;;34.05;20.83;;;9.20;97.10;;;;;;5040103;28;20383;-77
2022/04/15 04:50:19;;;;;;;38.80;20.75;;;9.20;96.60;;;;;;5047407;28;20474;-78
2022/04/15 04:52:46;;;;;;;36.78;21.65;;;9.20;96.10;;;;;;5038355;28;20399;-77
2022/04/15 04:55:13;;;;;;;36.42;21.90;;;9.20;96.60;;;;;;5033739;28;20416;-75
2022/04/15 04:57:39;;;;;;;36.83;21.40;;;9.20;95.40;;;;;;5025794;28;20439;-76
2022/04/15 05:00:06;;;;;;;34.78;21.92;;;9.10;96.00;;;;;;5028479;28;20399;-77
2022/04/15 05:02:32;;;;;;;35.95;21.27;;;9.10;95.50;;;;;;5031229;28;20415;-77
2022/04/15 05:04:57;;;;;;;37.97;21.65;;;9.20;94.70;;;;;;5030857;28;20942;-77
2022/04/15 05:07:23;;;;;;;42.53;22.60;;;9.20;93.30;;;;;;5031120;28;20404;-77
2022/04/15 05:09:49;;;;;;;42.03;22.30;;;9.10;96.00;;;;;;5024251;28;20395;-76
2022/04/15 05:12:15;;;;;;;36.55;21.52;;;9.20;93.40;;;;;;5009357;28;20408;-75
2022/04/15 05:14:40;;;;;;;35.00;20.73;;;9.30;91.20;;;;;;5021195;28;20395;-77
2022/04/15 05:17:06;;;;;;;39.33;22.00;;;9.30;89.70;;;;;;5029578;28;20403;-77
2022/04/15 05:19:32;;;;;;;38.23;20.97;;;9.30;89.20;;;;;;5032462;28;20418;-78
2022/04/15 05:21:58;;;;;;;40.75;22.23;;;9.20;89.40;;;;;;5036303;28;20418;-78
2022/04/15 05:24:23;;;;;;;36.95;21.13;;;9.20;90.10;;;;;;5018475;28;20901;-77
2022/04/15 05:26:49;;;;;;;39.90;22.60;;;9.20;90.80;;;;;;5021050;28;20887;-78
2022/04/15 05:29:14;;;;;;;35.70;21.30;;;9.20;91.30;;;;;;5025347;28;20447;-78
2022/04/15 05:31:42;;;;;;;35.75;21.40;;;9.10;92.30;;;;;;5023167;28;20415;-77
2022/04/15 05:34:08;;;;;;;38.28;21.30;;;9.20;92.50;;;;;;5023523;28;20897;-78
2022/04/15 05:36:34;;;;;;;40.83;23.63;;;9.10;93.30;;;;;;5018473;28;20458;-77
2022/04/15 05:38:59;;;;;;;39.38;23.17;;;9.10;95.40;;;;;;5022587;28;20888;-75
2022/04/15 05:41:25;;;;;;;42.15;22.60;;;9.20;94.70;;;;;;5032524;28;20502;-78
2022/04/15 05:43:51;;;;;;;44.53;24.13;;;9.30;93.90;;;;;;5025259;28;20405;-77
2022/04/15 05:46:16;;;;;;;46.50;23.20;;;9.30;92.90;;;;;;5017801;28;20548;-78
2022/04/15 05:48:42;;;;;;;42.07;25.03;;;9.30;93.30;;;;;;5021284;28;20396;-75
2022/04/15 05:51:08;;;;;;;43.93;24.17;;;9.30;94.00;;;;;;5022849;28;20408;-77
2022/04/15 05:53:34;;;;;;;41.40;24.73;;;9.40;93.80;;;;;;5029464;28;20516;-77
2022/04/15 05:55:59;;;;;;;40.60;23.93;;;9.50;93.20;;;;;;5036343;28;20436;-75
2022/04/15 05:58:28;;;;;;;45.92;24.17;;;9.50;91.10;;;;;;5038826;28;20455;-78
2022/04/15 06:00:55;;;;;;;47.50;26.48;;;9.60;88.40;;;;;;5029382;28;20922;-77
2022/04/15 06:03:24;;;;;;;63.33;29.08;;;9.60;88.80;;;;;;5026978;28;20393;-78
2022/04/15 06:05:50;;;;;;;79.20;33.95;;;9.70;86.90;;;;;;5029941;28;20419;-78
2022/04/15 06:08:16;;;;;;;83.83;36.47;;;9.60;89.30;;;;;;5027097;28;20397;-77
2022/04/15 06:10:42;;;;;;;84.15;34.63;;;9.60;89.00;;;;;;5018086;28;20427;-76
2022/04/15 06:13:19;;;;;;;90.30;39.92;;;9.60;87.50;;;;;;5032043;28;20421;-77
2022/04/15 06:15:52;;;;;;;80.47;40.73;;;9.70;88.50;;;;;;5021638;28;20391;-76
2022/04/15 06:18:25;;;;;;;82.97;39.30;;;9.80;84.20;;;;;;5031053;28;20397;-76
2022/04/15 06:20:51;;;;;;;84.30;41.73;;;9.80;82.90;;;;;;5017049;28;20812;-75
2022/04/15 06:23:18;;;;;;;86.40;41.10;;;9.90;83.10;;;;;;5016627;28;20397;-77
2022/04/15 06:25:45;;;;;;;77.55;39.60;;;9.90;81.40;;;;;;5017229;28;20389;-77
2022/04/15 06:28:11;;;;;;;88.00;43.33;;;9.80;81.40;;;;;;5015989;28;20420;-77
2022/04/15 06:30:38;;;;;;;89.18;43.45;;;9.80;83.70;;;;;;5022077;28;20400;-77
2022/04/15 06:33:08;;;;;;;80.70;39.50;;;9.80;83.90;;;;;;5021862;28;20388;-77
2022/04/15 06:35:35;;;;;;;80.88;41.28;;;9.80;83.80;;;;;;5023612;28;20404;-77
2022/04/15 06:38:01;;;;;;;76.00;39.55;;;9.80;84.30;;;;;;5022079;28;20471;-78
2022/04/15 06:40:28;;;;;;;71.82;38.70;;;9.80;83.40;;;;;;5023780;28;20391;-78
2022/04/15 06:42:53;;;;;;;74.43;36.58;;;9.80;83.90;;;;;;5026594;28;20426;-78
2022/04/15 06:45:19;;;;;;;62.27;33.00;;;9.90;82.20;;;;;;5030130;28;20528;-79
2022/04/15 06:47:45;;;;;;;72.95;35.22;;;9.80;81.70;;;;;;5023013;28;20872;-77
2022/04/15 06:50:10;;;;;;;76.35;39.50;;;9.60;85.50;;;;;;5022891;28;20401;-77
2022/04/15 06:52:36;;;;;;;77.15;36.38;;;9.50;87.60;;;;;;5021781;28;20406;-75
2022/04/15 06:55:02;;;;;;;78.32;38.92;;;9.60;94.80;;;;;;5025816;28;20952;-76
2022/04/15 06:57:28;;;;;;;78.88;40.80;;;9.50;87.40;;;;;;5028180;28;20396;-74
2022/04/15 06:59:54;;;;;;;68.97;36.38;;;9.60;88.10;;;;;;5030682;28;20401;-77
2022/04/15 07:02:19;;;;;;;67.55;33.15;;;9.70;85.90;;;;;;5016949;28;20507;-77
2022/04/15 07:04:45;;;;;;;61.60;32.40;;;9.70;85.00;;;;;;5021089;28;20423;-78
2022/04/15 07:07:11;;;;;;;50.43;25.33;;;9.80;83.40;;;;;;5021320;28;20397;-77
2022/04/15 07:09:36;;;;;;;56.70;27.75;;;9.60;81.70;;;;;;5033831;28;20419;-77
2022/04/15 07:12:02;;;;;;;57.00;29.15;;;9.60;81.90;;;;;;5020143;28;20401;-78
2022/04/15 07:14:29;;;;;;;48.60;25.80;;;9.70;80.70;;;;;;5026886;28;21038;-79
2022/04/15 07:16:54;;;;;;;49.33;27.23;;;9.60;80.00;;;;;;5027129;28;20834;-81
2022/04/15 07:19:20;;;;;;;58.50;28.63;;;9.70;79.70;;;;;;5029741;28;20440;-77
2022/04/15 07:21:46;;;;;;;52.42;29.05;;;9.80;78.70;;;;;;5029270;28;20419;-77
2022/04/15 07:24:11;;;;;;;57.72;27.35;;;10.00;78.10;;;;;;5018263;28;20405;-78
2022/04/15 07:26:37;;;;;;;50.75;28.15;;;10.00;76.10;;;;;;5014316;28;20926;-80
2022/04/15 07:29:04;;;;;;;51.78;27.85;;;10.10;74.70;;;;;;5012820;28;20411;-77
2022/04/15 07:31:29;;;;;;;54.13;31.40;;;10.00;74.10;;;;;;5016040;28;20428;-79
2022/04/15 07:33:55;;;;;;;57.17;29.90;;;10.00;76.60;;;;;;5008130;28;20404;-80
2022/04/15 07:39:04;;;;;;;56.92;33.60;;;10.40;67.70;;;;;;5022209;28;20856;-79
2022/04/15 07:41:30;;;;;;;63.67;37.65;;;10.70;57.60;;;;;;5030215;28;20773;-78
2022/04/15 07:43:56;;;;;;;66.97;39.08;;;10.80;52.60;;;;;;5017601;28;20417;-75
2022/04/15 07:46:21;;;;;;;61.85;37.15;;;11.00;50.10;;;;;;5016933;28;20413;-79
2022/04/15 07:48:47;;;;;;;58.72;36.47;;;11.10;47.60;;;;;;5028220;28;20410;-76
2022/04/15 07:51:12;;;;;;;55.03;33.13;;;11.10;46.00;;;;;;5030588;28;20408;-76
2022/04/15 07:53:38;;;;;;;57.83;36.08;;;10.90;47.20;;;;;;5030985;28;20404;-78
2022/04/15 07:56:04;;;;;;;56.50;34.80;;;11.10;46.80;;;;;;5026531;23;20462;-76
2022/04/15 07:58:32;;;;;;;54.45;34.10;;;11.40;46.40;;;;;;5021014;28;20413;-79
2022/04/15 08:01:01;;;;;;;50.77;30.77;;;11.70;44.10;;;;;;4991548;28;20478;-77
2022/04/15 08:03:27;;;;;;;52.23;30.53;;;11.70;42.70;;;;;;4995459;28;20417;-76
2022/04/15 08:05:54;;;;;;;48.80;30.50;;;11.80;40.00;;;;;;4993912;28;20416;-76
2022/04/15 08:08:20;;;;;;;44.35;28.85;;;11.60;40.50;;;;;;4982882;28;20392;-76
2022/04/15 08:10:47;;;;;;;46.80;30.43;;;11.40;41.80;;;;;;4990685;28;20476;-76
2022/04/15 08:13:13;;;;;;;48.60;29.48;;;11.70;41.90;;;;;;4989436;28;20410;-76
2022/04/15 08:15:38;;;;;;;40.70;27.50;;;12.10;38.40;;;;;;4987336;28;20418;-76
2022/04/15 08:18:04;;;;;;;38.10;25.10;;;12.50;37.50;;;;;;4987376;28;20408;-75
2022/04/15 08:20:30;;;;;;;41.97;27.10;;;12.30;35.30;;;;;;4993499;28;20617;-77
2022/04/15 08:22:55;;;;;;;32.77;22.90;;;12.50;35.40;;;;;;4990745;28;20415;-77
2022/04/15 08:25:21;;;;;;;38.30;23.93;;;12.40;35.10;;;;;;4991687;28;20890;-77
2022/04/15 08:27:46;;;;;;;30.25;19.20;;;12.50;34.10;;;;;;4991891;28;20399;-76
2022/04/15 08:30:12;;;;;;;24.83;16.70;;;12.30;34.50;;;;;;4994629;28;20398;-76
2022/04/15 08:32:38;;;;;;;21.05;15.02;;;12.40;33.70;;;;;;4994118;28;20410;-76
2022/04/15 08:35:06;;;;;;;21.98;15.73;;;12.40;33.40;;;;;;4994706;28;20414;-75
2022/04/15 08:37:35;;;;;;;22.58;14.93;;;12.20;33.00;;;;;;5003240;28;20402;-76
2022/04/15 08:40:01;;;;;;;11.00;8.70;;;12.00;34.90;;;;;;5008306;28;20450;-76
2022/04/15 08:42:27;;;;;;;15.23;8.88;;;11.90;33.40;;;;;;4998252;28;20418;-76
2022/04/15 08:44:53;;;;;;;13.23;8.82;;;12.10;32.70;;;;;;4997797;28;21181;-79
2022/04/15 08:47:20;;;;;;;9.13;7.53;;;12.30;31.20;;;;;;5002305;28;20410;-75
2022/04/15 08:49:46;;;;;;;8.18;6.10;;;12.50;31.30;;;;;;4996272;28;20396;-75
2022/04/15 08:52:16;;;;;;;8.18;5.80;;;13.00;29.70;;;;;;4993927;28;20778;-75
2022/04/15 08:54:42;;;;;;;9.47;5.83;;;13.30;28.10;;;;;;4995683;28;20398;-76
2022/04/15 08:57:08;;;;;;;6.30;5.40;;;13.50;26.70;;;;;;4993770;28;20433;-75
2022/04/15 08:59:34;;;;;;;6.50;5.05;;;13.70;27.30;;;;;;4996997;28;20912;-75
2022/04/15 09:02:00;;;;;;;11.50;5.20;;;13.50;25.90;;;;;;4998102;28;20418;-75
2022/04/15 09:04:25;;;;;;;7.63;4.97;;;13.40;26.70;;;;;;5000268;28;20398;-76
2022/04/15 09:07:02;;;;;;;8.73;4.80;;;13.30;26.30;;;;;;5007642;28;20804;-75
2022/04/15 09:09:32;;;;;;;7.25;5.20;;;13.20;27.20;;;;;;5004450;28;20409;-75
2022/04/15 09:11:59;;;;;;;9.30;5.32;;;13.30;27.40;;;;;;4994406;28;20571;-73
2022/04/15 09:14:26;;;;;;;5.63;5.03;;;13.60;27.00;;;;;;4994892;28;20505;-75
2022/04/15 09:16:52;;;;;;;9.20;4.88;;;13.70;26.60;;;;;;4991682;28;20460;-75
2022/04/15 09:19:19;;;;;;;6.78;5.40;;;14.00;24.90;;;;;;4982499;28;20468;-75
2022/04/15 09:21:56;;;;;;;9.80;4.90;;;14.00;24.20;;;;;;4989730;28;20465;-74
2022/04/15 09:24:31;;;;;;;8.20;5.30;;;13.90;25.30;;;;;;4989240;28;20421;-77
2022/04/15 09:27:01;;;;;;;6.88;5.10;;;14.20;24.50;;;;;;4995980;28;20418;-82
2022/04/15 09:29:35;;;;;;;6.28;4.93;;;14.80;23.40;;;;;;4986981;28;20508;-76
2022/04/15 09:32:14;;;;;;;6.32;4.80;;;15.00;21.70;;;;;;4989300;28;20401;-77
2022/04/15 09:34:53;;;;;;;6.65;4.80;;;14.80;22.20;;;;;;4991848;28;20414;-75
2022/04/15 09:37:20;;;;;;;7.60;5.25;;;14.90;21.70;;;;;;4989475;28;20414;-76
2022/04/15 09:40:14;;;;;;;6.30;5.00;;;14.80;22.20;;;;;;4988547;28;20922;-78
2022/04/15 09:42:57;;;;;;;8.80;5.20;;;14.60;22.50;;;;;;4997530;28;20418;-76
2022/04/15 09:45:36;;;;;;;9.45;5.57;;;14.60;22.50;;;;;;5000320;28;20402;-76
2022/04/15 09:48:03;;;;;;;8.65;5.20;;;14.30;23.20;;;;;;4988877;28;20400;-77
2022/04/15 09:50:43;;;;;;;7.35;5.20;;;14.70;24.30;;;;;;4982483;28;20783;-76
2022/04/15 09:53:18;;;;;;;9.32;5.60;;;15.10;22.40;;;;;;5002719;28;20485;-77
2022/04/15 09:55:47;;;;;;;9.13;5.85;;;15.30;20.80;;;;;;4991651;28;20492;-76
2022/04/15 09:58:18;;;;;;;9.00;5.80;;;14.80;22.60;;;;;;4998209;28;20445;-77
2022/04/15 10:00:51;;;;;;;6.75;5.80;;;14.80;22.60;;;;;;5002183;28;21134;-76
2022/04/15 10:03:27;;;;;;;10.63;6.57;;;14.70;23.30;;;;;;4987644;28;20429;-75
2022/04/15 10:05:58;;;;;;;7.93;6.68;;;14.70;23.40;;;;;;4987509;28;20895;-75
2022/04/15 10:08:26;;;;;;;9.10;6.50;;;14.60;24.10;;;;;;4997415;28;20410;-76
2022/04/15 10:10:53;;;;;;;9.02;6.60;;;14.90;22.90;;;;;;4993948;28;20398;-74
2022/04/15 10:13:27;;;;;;;8.90;6.75;;;15.20;22.40;;;;;;4996799;28;20747;-74
2022/04/15 10:15:54;;;;;;;10.55;6.70;;;15.40;21.40;;;;;;4999123;28;20513;-74
2022/04/15 10:18:22;;;;;;;9.60;7.32;;;15.60;20.60;;;;;;4994172;28;20403;-74
2022/04/15 10:20:48;;;;;;;12.88;7.22;;;15.40;21.00;;;;;;4997109;28;20407;-73
2022/04/15 10:23:15;;;;;;;11.57;7.20;;;15.70;20.90;;;;;;5001278;28;20417;-74
2022/04/15 10:25:46;;;;;;;10.83;7.13;;;15.00;21.00;;;;;;4983007;28;20514;-75
2022/04/15 10:28:13;;;;;;;13.88;7.10;;;14.80;22.60;;;;;;4989467;28;20398;-74
2022/04/15 10:31:04;;;;;;;13.75;8.02;;;14.60;22.60;;;;;;4995026;28;20480;-75
2022/04/15 10:33:31;;;;;;;10.23;7.20;;;14.60;23.00;;;;;;4995957;28;20453;-74
2022/04/15 10:36:31;;;;;;;11.07;7.38;;;15.30;21.20;;;;;;4994878;28;20402;-76
2022/04/15 10:39:03;;;;;;;8.90;7.50;;;14.90;20.90;;;;;;4990655;28;20414;-74
2022/04/15 10:42:02;;;;;;;11.98;7.82;;;14.30;23.80;;;;;;4989790;28;20414;-76
2022/04/15 10:44:41;;;;;;;11.75;7.75;;;14.60;23.00;;;;;;4987541;28;20417;-74
2022/04/15 10:47:19;;;;;;;11.75;7.97;;;14.60;24.30;;;;;;4990122;28;20438;-72
2022/04/15 10:49:58;;;;;;;10.73;8.20;;;14.70;22.70;;;;;;4991516;28;20426;-75
2022/04/15 10:52:25;;;;;;;11.60;8.82;;;14.70;23.10;;;;;;4984618;28;20410;-74
2022/04/15 10:54:59;;;;;;;13.82;9.43;;;14.80;23.40;;;;;;4990297;28;20407;-74
2022/04/15 10:57:46;;;;;;;13.90;10.10;;;14.70;22.60;;;;;;4989516;28;20745;-72
2022/04/15 11:03:28;;;;;;;14.40;11.50;;;15.30;22.50;;;;;;4986066;28;20433;-75
2022/04/15 11:05:58;;;;;;;18.15;12.57;;;15.10;21.70;;;;;;4988776;28;20403;-77
2022/04/15 11:08:26;;;;;;;19.35;13.10;;;14.70;23.50;;;;;;4989579;28;20410;-77
2022/04/15 11:10:57;;;;;;;19.67;14.32;;;14.60;23.70;;;;;;4989942;28;20409;-77
2022/04/15 11:13:23;;;;;;;20.10;13.90;;;14.60;24.30;;;;;;4991394;28;20414;-77
2022/04/15 11:16:04;;;;;;;22.65;15.40;;;14.80;24.30;;;;;;4988034;28;20468;-77
2022/04/15 11:18:51;;;;;;;21.17;15.90;;;15.00;23.20;;;;;;4996832;28;20422;-76
2022/04/15 11:21:23;;;;;;;20.45;15.55;;;15.00;23.50;;;;;;4984459;28;20473;-75
2022/04/15 11:23:51;;;;;;;24.70;18.40;;;14.70;23.80;;;;;;4989461;28;21062;-76
2022/04/15 11:26:18;;;;;;;29.93;21.57;;;14.40;25.10;;;;;;4989881;28;20421;-76
2022/04/15 11:28:48;;;;;;;29.90;21.63;;;14.70;25.00;;;;;;4990411;28;20406;-75
2022/04/15 11:31:21;;;;;;;29.88;21.48;;;15.00;23.10;;;;;;4983330;28;20434;-76
2022/04/15 11:33:46;;;;;;;32.20;23.35;;;14.60;24.20;;;;;;4988679;28;20407;-74
2022/04/15 11:36:13;;;;;;;32.70;24.33;;;14.70;24.20;;;;;;4990557;28;20407;-75
2022/04/15 11:38:43;;;;;;;29.77;21.75;;;14.80;24.60;;;;;;4989051;28;20520;-77
2022/04/15 11:41:10;;;;;;;26.95;21.55;;;15.30;22.20;;;;;;4989418;28;20513;-75
2022/04/15 11:43:35;;;;;;;31.95;23.35;;;15.10;22.80;;;;;;4987027;28;20425;-74
2022/04/15 11:46:01;;;;;;;29.67;22.03;;;15.00;23.00;;;;;;4989228;28;20410;-76
2022/04/15 11:48:26;;;;;;;32.93;22.87;;;15.10;22.70;;;;;;4987198;28;20785;-75
2022/04/15 11:50:54;;;;;;;27.60;21.80;;;15.10;21.60;;;;;;4984499;28;20404;-75
2022/04/15 11:53:21;;;;;;;30.35;23.02;;;14.90;22.10;;;;;;4986466;28;21175;-75
2022/04/15 11:55:50;;;;;;;26.85;22.73;;;14.60;24.20;;;;;;4992361;28;20422;-76
2022/04/15 11:58:16;;;;;;;33.47;24.08;;;14.70;23.90;;;;;;4990052;28;20445;-76
2022/04/15 12:00:43;;;;;;;27.25;22.00;;;14.70;23.70;;;;;;4996639;28;20429;-76
2022/04/15 12:03:12;;;;;;;30.13;22.75;;;14.90;22.90;;;;;;4993125;28;20418;-75
2022/04/15 12:05:39;;;;;;;28.52;23.13;;;14.90;23.70;;;;;;5001869;28;20404;-74
2022/04/15 12:08:06;;;;;;;29.35;23.77;;;14.70;23.80;;;;;;5001099;28;20402;-78
2022/04/15 12:10:32;;;;;;;31.50;25.10;;;14.60;23.90;;;;;;4993744;28;20428;-75
2022/04/15 12:12:58;;;;;;;35.83;26.00;;;14.60;24.80;;;;;;4995753;28;20769;-76
2022/04/15 12:15:27;;;;;;;32.88;25.98;;;15.00;24.50;;;;;;4993239;28;20401;-75
2022/04/15 12:17:53;;;;;;;32.03;25.52;;;15.40;22.60;;;;;;4996680;28;20506;-75
2022/04/15 12:20:19;;;;;;;35.65;26.88;;;15.70;20.70;;;;;;4992407;28;20485;-75
2022/04/15 12:22:45;;;;;;;31.35;24.50;;;15.80;20.70;;;;;;4993425;28;20430;-76
2022/04/15 12:25:19;;;;;;;30.83;23.92;;;15.40;20.60;;;;;;4988899;28;20493;-74
2022/04/15 12:27:46;;;;;;;29.50;23.20;;;14.90;21.90;;;;;;4987378;28;20957;-75
2022/04/15 12:30:12;;;;;;;31.80;26.35;;;14.50;23.20;;;;;;4992785;28;20391;-75
2022/04/15 12:32:39;;;;;;;30.85;24.90;;;14.50;24.50;;;;;;4989080;28;20883;-74
2022/04/15 12:35:09;;;;;;;31.10;25.90;;;15.10;22.70;;;;;;4991440;28;20402;-74
2022/04/15 12:37:50;;;;;;;32.05;24.08;;;15.10;21.90;;;;;;4989965;28;20764;-74
2022/04/15 12:40:17;;;;;;;27.58;20.15;;;14.90;22.20;;;;;;4988127;28;20438;-74